createdAt,value
2022-12-25T00:00:51.775Z,8.50
2022-12-25T00:03:20.679Z,8.60
2022-12-25T00:05:47.568Z,8.80
2022-12-25T00:08:14.426Z,8.90
2022-12-25T00:10:45.193Z,9.00
2022-12-25T00:13:12.537Z,9.00
2022-12-25T00:15:40.625Z,9.10
2022-12-25T00:18:07.507Z,9.20
2022-12-25T00:20:34.398Z,9.10
2022-12-25T00:23:01.229Z,9.10
2022-12-25T00:25:28.101Z,9.10
2022-12-25T00:27:54.941Z,9.10
2022-12-25T00:30:21.776Z,9.10
2022-12-25T00:32:48.883Z,9.10
2022-12-25T00:35:15.738Z,9.10
2022-12-25T00:37:42.548Z,9.10
2022-12-25T00:40:09.724Z,8.90
2022-12-25T00:42:36.556Z,8.90
2022-12-25T00:45:04.846Z,8.80
2022-12-25T00:47:31.703Z,8.80
2022-12-25T00:49:58.532Z,8.70
2022-12-25T00:52:25.428Z,8.70
2022-12-25T00:54:52.329Z,8.70
2022-12-25T00:57:19.779Z,8.80
2022-12-25T00:59:46.610Z,8.80
2022-12-25T01:02:25.877Z,8.90
2022-12-25T01:04:54.390Z,8.80
2022-12-25T01:07:22.215Z,8.80
2022-12-25T01:10:07.682Z,8.70
2022-12-25T01:12:38.827Z,8.70
2022-12-25T01:15:09.771Z,8.80
2022-12-25T01:17:36.749Z,8.80
2022-12-25T01:20:03.856Z,8.80
2022-12-25T01:22:30.756Z,8.90
2022-12-25T01:24:57.575Z,8.90
2022-12-25T01:27:24.404Z,8.80
2022-12-25T01:29:51.289Z,9.00
2022-12-25T01:32:18.351Z,8.90
2022-12-25T01:34:48.186Z,9.10
2022-12-25T01:37:18.944Z,9.20
2022-12-25T01:39:45.781Z,9.10
2022-12-25T01:42:20.598Z,9.00
2022-12-25T01:44:47.432Z,9.00
2022-12-25T01:47:15.155Z,9.00
2022-12-25T01:49:44.160Z,8.90
2022-12-25T01:52:14.917Z,8.80
2022-12-25T01:54:46.508Z,8.90
2022-12-25T01:57:18.885Z,8.90
2022-12-25T01:59:46.369Z,8.90
2022-12-25T02:02:13.355Z,8.90
2022-12-25T02:04:48.269Z,8.80
2022-12-25T02:07:16.951Z,8.60
2022-12-25T02:09:45.457Z,8.50
2022-12-25T02:12:21.241Z,8.40
2022-12-25T02:14:49.502Z,8.40
2022-12-25T02:17:21.657Z,8.40
2022-12-25T02:20:02.334Z,8.40
2022-12-25T02:22:47.417Z,8.50
2022-12-25T02:25:17.107Z,8.40
2022-12-25T02:28:16.439Z,8.40
2022-12-25T02:30:45.861Z,8.40
2022-12-25T02:33:52.457Z,8.40
2022-12-25T02:36:21.933Z,8.40
2022-12-25T02:39:10.795Z,8.50
2022-12-25T02:41:39.171Z,8.40
2022-12-25T02:44:27.239Z,8.30
2022-12-25T02:47:12.829Z,8.30
2022-12-25T02:49:59.348Z,8.20
2022-12-25T02:52:46.513Z,8.20
2022-12-25T02:55:33.964Z,8.30
2022-12-25T02:58:22.753Z,8.20
2022-12-25T03:01:25.577Z,8.20
2022-12-25T03:04:12.523Z,8.20
2022-12-25T03:06:43.742Z,8.20
2022-12-25T03:09:31.040Z,8.20
2022-12-25T03:12:18.093Z,8.20
2022-12-25T03:15:03.749Z,8.20
2022-12-25T03:17:31.703Z,8.30
2022-12-25T03:20:17.319Z,8.50
2022-12-25T03:23:03.752Z,8.40
2022-12-25T03:25:49.353Z,8.40
2022-12-25T03:28:16.240Z,8.50
2022-12-25T03:31:11.286Z,8.40
2022-12-25T03:34:11.570Z,8.40
2022-12-25T03:36:41.583Z,8.40
2022-12-25T03:39:33.115Z,8.40
2022-12-25T03:42:19.237Z,8.40
2022-12-25T03:45:17.355Z,8.40
2022-12-25T03:48:06.641Z,8.40
2022-12-25T03:50:53.585Z,8.40
2022-12-25T03:53:44.272Z,8.40
2022-12-25T03:56:30.170Z,8.30
2022-12-25T03:59:22.860Z,8.50
2022-12-25T04:02:09.605Z,8.50
2022-12-25T04:04:55.123Z,8.50
2022-12-25T04:07:40.669Z,8.50
2022-12-25T04:10:26.248Z,8.50
2022-12-25T04:13:11.697Z,8.40
2022-12-25T04:15:57.354Z,8.20
2022-12-25T04:18:42.968Z,8.30
2022-12-25T04:21:28.153Z,8.20
2022-12-25T04:24:13.794Z,8.30
2022-12-25T04:26:59.290Z,8.10
2022-12-25T04:29:44.787Z,8.10
2022-12-25T04:32:30.401Z,8.30
2022-12-25T04:35:16.027Z,8.30
2022-12-25T04:37:42.947Z,8.40
2022-12-25T04:40:09.926Z,8.50
2022-12-25T04:42:36.837Z,8.60
2022-12-25T04:45:03.837Z,8.70
2022-12-25T04:47:30.670Z,8.80
2022-12-25T04:49:57.551Z,8.70
2022-12-25T04:52:24.370Z,8.80
2022-12-25T04:54:51.210Z,8.70
2022-12-25T04:57:18.125Z,8.70
2022-12-25T04:59:44.952Z,8.70
2022-12-25T05:02:12.090Z,8.70
2022-12-25T05:04:38.985Z,8.70
2022-12-25T05:07:05.768Z,8.70
2022-12-25T05:09:32.678Z,8.70
2022-12-25T05:11:59.657Z,8.70
2022-12-25T05:14:26.561Z,8.70
2022-12-25T05:16:53.393Z,8.70
2022-12-25T05:19:20.201Z,8.70
2022-12-25T05:21:47.026Z,8.70
2022-12-25T05:24:13.908Z,8.70
2022-12-25T05:26:40.728Z,8.70
2022-12-25T05:29:07.608Z,8.70
2022-12-25T05:31:34.503Z,8.60
2022-12-25T05:34:01.461Z,8.60
2022-12-25T05:36:28.365Z,8.50
2022-12-25T05:38:55.241Z,8.50
2022-12-25T05:41:22.019Z,8.40
2022-12-25T05:43:48.848Z,8.30
2022-12-25T05:46:15.755Z,8.30
2022-12-25T05:48:42.605Z,8.20
2022-12-25T05:51:11.330Z,8.10
2022-12-25T05:53:38.494Z,8.00
2022-12-25T05:56:06.107Z,7.70
2022-12-25T05:58:33.696Z,7.60
2022-12-25T06:01:01.010Z,7.50
2022-12-25T06:03:28.298Z,7.40
2022-12-25T06:05:55.205Z,7.50
2022-12-25T06:08:22.048Z,7.50
2022-12-25T06:10:48.921Z,7.40
2022-12-25T06:13:15.783Z,7.20
2022-12-25T06:15:42.717Z,7.10
2022-12-25T06:18:09.561Z,7.00
2022-12-25T06:20:36.558Z,7.00
2022-12-25T06:23:03.456Z,7.00
2022-12-25T06:25:30.288Z,6.90
2022-12-25T06:27:57.156Z,6.90
2022-12-25T06:30:24.014Z,7.00
2022-12-25T06:32:50.843Z,6.90
2022-12-25T06:35:17.674Z,7.20
2022-12-25T06:37:44.589Z,7.20
2022-12-25T06:40:13.144Z,7.10
2022-12-25T06:42:39.971Z,7.20
2022-12-25T06:45:07.083Z,7.20
2022-12-25T06:47:33.929Z,7.30
2022-12-25T06:50:00.748Z,7.30
2022-12-25T06:52:27.600Z,7.30
2022-12-25T06:54:54.522Z,7.30
2022-12-25T06:57:21.342Z,7.30
2022-12-25T06:59:53.148Z,7.20
2022-12-25T07:02:23.194Z,7.30
2022-12-25T07:04:50.154Z,7.30
2022-12-25T07:07:17.005Z,7.40
2022-12-25T07:09:43.832Z,7.50
2022-12-25T07:12:13.526Z,7.50
2022-12-25T07:14:40.587Z,7.50
2022-12-25T07:17:07.496Z,7.40
2022-12-25T07:19:37.121Z,7.60
2022-12-25T07:22:06.580Z,7.70
2022-12-25T07:24:33.490Z,7.60
2022-12-25T07:27:00.291Z,7.80
2022-12-25T07:29:27.154Z,7.70
2022-12-25T07:31:54.031Z,7.70
2022-12-25T07:34:21.002Z,7.80
2022-12-25T07:36:47.810Z,7.80
2022-12-25T07:39:14.708Z,7.70
2022-12-25T07:41:41.771Z,7.60
2022-12-25T07:44:14.951Z,7.60
2022-12-25T07:46:41.839Z,7.70
2022-12-25T07:49:08.660Z,7.70
2022-12-25T07:51:35.559Z,7.70
2022-12-25T07:54:02.421Z,7.60
2022-12-25T07:56:29.369Z,7.60
2022-12-25T07:58:56.187Z,7.70
2022-12-25T08:01:24.146Z,7.80
2022-12-25T08:03:52.392Z,7.70
2022-12-25T08:06:20.044Z,7.60
2022-12-25T08:08:46.856Z,7.80
2022-12-25T08:11:13.714Z,8.00
2022-12-25T08:13:40.935Z,8.20
2022-12-25T08:16:08.770Z,8.10
2022-12-25T08:18:36.692Z,8.20
2022-12-25T08:21:07.964Z,8.30
2022-12-25T08:23:35.822Z,8.30
2022-12-25T08:26:05.499Z,8.40
2022-12-25T08:28:33.299Z,8.40
2022-12-25T08:31:00.418Z,8.50
2022-12-25T08:33:27.248Z,8.40
2022-12-25T08:35:54.179Z,8.60
2022-12-25T08:38:20.974Z,8.80
2022-12-25T08:40:47.955Z,8.70
2022-12-25T08:43:14.827Z,8.60
2022-12-25T08:45:42.174Z,8.40
2022-12-25T08:48:09.014Z,8.40
2022-12-25T08:50:35.815Z,8.40
2022-12-25T08:53:02.659Z,8.50
2022-12-25T08:55:30.060Z,8.40
2022-12-25T08:57:56.958Z,8.40
2022-12-25T09:00:23.849Z,8.60
2022-12-25T09:02:50.962Z,8.60
2022-12-25T09:05:18.047Z,8.60
2022-12-25T09:07:44.813Z,8.80
2022-12-25T09:10:11.734Z,9.00
2022-12-25T09:12:38.581Z,10.10
2022-12-25T09:15:05.671Z,11.90
2022-12-25T09:17:33.118Z,13.10
2022-12-25T09:20:00.283Z,14.40
2022-12-25T09:22:27.189Z,15.50
2022-12-25T09:24:54.024Z,15.50
2022-12-25T09:27:20.979Z,16.10
2022-12-25T09:29:47.791Z,17.20
2022-12-25T09:32:14.630Z,17.80
2022-12-25T09:34:41.476Z,18.20
2022-12-25T09:37:08.335Z,18.80
2022-12-25T09:39:38.194Z,18.60
2022-12-25T09:42:15.203Z,16.70
2022-12-25T09:44:43.665Z,15.80
2022-12-25T09:47:14.587Z,17.60
2022-12-25T09:49:47.840Z,18.60
2022-12-25T09:52:16.839Z,19.20
2022-12-25T09:54:51.519Z,18.80
2022-12-25T09:57:18.391Z,17.90
2022-12-25T09:59:47.443Z,16.50
2022-12-25T10:02:17.313Z,15.50
2022-12-25T10:04:59.648Z,15.70
2022-12-25T10:07:32.308Z,16.20
2022-12-25T10:10:11.144Z,16.00
2022-12-25T10:12:44.112Z,16.10
2022-12-25T10:15:31.687Z,17.30
2022-12-25T10:18:28.132Z,18.10
2022-12-25T10:20:56.229Z,17.70
2022-12-25T10:23:25.623Z,16.80
2022-12-25T10:25:53.741Z,17.50
2022-12-25T10:28:41.547Z,17.30
2022-12-25T10:31:21.802Z,16.40
2022-12-25T10:33:49.443Z,16.80
2022-12-25T10:36:17.952Z,17.20
2022-12-25T10:38:45.083Z,18.30
2022-12-25T10:41:35.074Z,18.50
2022-12-25T10:44:11.614Z,18.50
2022-12-25T10:46:38.548Z,19.30
2022-12-25T10:49:05.501Z,18.50
2022-12-25T10:51:34.229Z,18.20
2022-12-25T10:54:17.274Z,18.10
2022-12-25T10:57:14.585Z,17.50
2022-12-25T10:59:48.624Z,15.80
2022-12-25T11:02:18.306Z,15.10
2022-12-25T11:04:45.334Z,14.40
2022-12-25T11:07:23.024Z,14.20
2022-12-25T11:09:57.800Z,13.80
2022-12-25T11:12:30.741Z,13.90
2022-12-25T11:14:58.977Z,14.10
2022-12-25T11:17:27.043Z,14.70
2022-12-25T11:20:00.962Z,15.00
2022-12-25T11:22:29.274Z,15.90
2022-12-25T11:24:56.084Z,16.60
2022-12-25T11:27:23.304Z,16.80
2022-12-25T11:29:51.809Z,16.40
2022-12-25T11:32:30.375Z,15.40
2022-12-25T11:34:57.920Z,14.80
2022-12-25T11:37:24.695Z,14.80
2022-12-25T11:39:51.613Z,14.60
2022-12-25T11:42:22.640Z,14.40
2022-12-25T11:44:49.503Z,14.10
2022-12-25T11:47:23.739Z,14.50
2022-12-25T11:49:56.188Z,14.60
2022-12-25T11:52:29.176Z,14.30
2022-12-25T11:54:58.641Z,14.80
2022-12-25T11:57:26.832Z,15.20
2022-12-25T11:59:56.104Z,15.20
2022-12-25T12:02:33.030Z,14.80
2022-12-25T12:05:21.431Z,14.40
2022-12-25T12:07:59.831Z,14.60
2022-12-25T12:10:26.713Z,14.40
2022-12-25T12:13:05.069Z,14.30
2022-12-25T12:15:44.928Z,14.00
2022-12-25T12:18:20.935Z,14.10
2022-12-25T12:21:01.768Z,14.00
2022-12-25T12:23:30.125Z,13.80
2022-12-25T12:25:57.378Z,14.00
2022-12-25T12:28:29.075Z,14.20
2022-12-25T12:31:03.697Z,14.30
2022-12-25T12:33:36.507Z,14.50
2022-12-25T12:36:04.370Z,14.60
2022-12-25T12:38:32.614Z,14.80
2022-12-25T12:41:03.544Z,14.70
2022-12-25T12:43:39.465Z,14.50
2022-12-25T12:46:21.571Z,14.40
2022-12-25T12:48:52.569Z,14.50
2022-12-25T12:51:33.177Z,14.60
2022-12-25T12:54:20.659Z,14.50
2022-12-25T12:56:57.480Z,14.50
2022-12-25T12:59:25.189Z,14.70
2022-12-25T13:01:59.380Z,14.40
2022-12-25T13:04:39.542Z,14.30
2022-12-25T13:07:25.219Z,14.50
2022-12-25T13:09:59.223Z,14.60
2022-12-25T13:12:26.273Z,14.50
2022-12-25T13:14:53.323Z,14.70
2022-12-25T13:17:25.590Z,14.60
2022-12-25T13:19:55.067Z,14.50
2022-12-25T13:22:24.411Z,14.60
2022-12-25T13:25:01.586Z,14.80
2022-12-25T13:27:29.826Z,14.70
2022-12-25T13:29:57.331Z,14.80
2022-12-25T13:32:26.025Z,14.80
2022-12-25T13:34:53.495Z,14.90
2022-12-25T13:37:24.563Z,15.00
2022-12-25T13:39:53.414Z,15.10
2022-12-25T13:42:22.701Z,15.20
2022-12-25T13:45:12.736Z,15.20
2022-12-25T13:47:40.591Z,15.10
2022-12-25T13:50:33.966Z,15.10
2022-12-25T13:53:13.623Z,15.30
2022-12-25T13:55:41.800Z,15.30
2022-12-25T13:58:23.877Z,14.90
2022-12-25T14:00:53.146Z,14.80
2022-12-25T14:03:43.416Z,14.60
2022-12-25T14:06:19.558Z,14.40
2022-12-25T14:08:47.266Z,14.10
2022-12-25T14:11:18.194Z,14.00
2022-12-25T14:13:45.436Z,13.90
2022-12-25T14:16:15.616Z,13.90
2022-12-25T14:18:50.136Z,13.90
2022-12-25T14:21:22.763Z,14.00
2022-12-25T14:23:50.113Z,14.00
2022-12-25T14:26:18.874Z,14.10
2022-12-25T14:29:02.018Z,14.20
2022-12-25T14:31:29.254Z,14.20
2022-12-25T14:33:56.122Z,14.30
2022-12-25T14:36:23.035Z,14.30
2022-12-25T14:38:57.562Z,14.30
2022-12-25T14:41:34.497Z,14.40
2022-12-25T14:44:02.947Z,14.20
2022-12-25T14:46:30.810Z,13.90
2022-12-25T14:49:00.673Z,13.80
2022-12-25T14:51:28.256Z,13.70
2022-12-25T14:53:56.298Z,14.00
2022-12-25T14:56:24.085Z,13.80
2022-12-25T14:58:52.653Z,13.60
2022-12-25T15:01:21.792Z,13.30
2022-12-25T15:03:49.357Z,12.90
2022-12-25T15:06:20.813Z,12.60
2022-12-25T15:09:01.131Z,12.30
2022-12-25T15:11:28.439Z,12.10
2022-12-25T15:13:56.275Z,11.90
2022-12-25T15:16:24.716Z,11.70
2022-12-25T15:18:52.056Z,11.60
2022-12-25T15:21:25.116Z,11.30
2022-12-25T15:23:52.980Z,11.20
2022-12-25T15:26:19.859Z,11.10
2022-12-25T15:28:46.801Z,11.10
2022-12-25T15:31:19.729Z,10.90
2022-12-25T15:33:46.706Z,10.80
2022-12-25T15:36:13.549Z,10.60
2022-12-25T15:38:40.379Z,10.80
2022-12-25T15:41:34.460Z,10.60
2022-12-25T15:44:01.490Z,10.50
2022-12-25T15:46:28.371Z,10.50
2022-12-25T15:48:55.316Z,10.50
2022-12-25T15:51:22.368Z,10.30
2022-12-25T15:53:49.225Z,10.50
2022-12-25T15:56:16.254Z,10.30
2022-12-25T15:58:43.084Z,10.20
2022-12-25T16:01:17.134Z,10.10
2022-12-25T16:03:44.696Z,10.00
2022-12-25T16:06:12.271Z,10.00
2022-12-25T16:08:39.490Z,10.00
2022-12-25T16:11:06.633Z,10.00
2022-12-25T16:13:33.734Z,10.10
2022-12-25T16:16:01.509Z,10.30
2022-12-25T16:18:29.948Z,10.10
2022-12-25T16:20:58.022Z,10.30
2022-12-25T16:23:25.109Z,10.10
2022-12-25T16:25:51.976Z,10.00
2022-12-25T16:28:18.946Z,9.90
2022-12-25T16:30:45.840Z,9.90
2022-12-25T16:33:12.738Z,9.80
2022-12-25T16:35:39.620Z,9.70
2022-12-25T16:38:07.050Z,9.60
2022-12-25T16:40:34.218Z,9.60
2022-12-25T16:43:01.086Z,9.70
2022-12-25T16:45:27.895Z,9.80
2022-12-25T16:47:56.097Z,9.80
2022-12-25T16:50:23.183Z,9.80
2022-12-25T16:52:50.002Z,9.70
2022-12-25T16:55:16.884Z,9.90
2022-12-25T16:57:43.782Z,9.90
2022-12-25T17:00:12.526Z,9.60
2022-12-25T17:02:40.327Z,9.30
2022-12-25T17:05:07.494Z,9.30
2022-12-25T17:07:38.334Z,9.40
2022-12-25T17:10:14.639Z,9.50
2022-12-25T17:12:42.610Z,9.60
2022-12-25T17:15:09.984Z,9.50
2022-12-25T17:17:40.023Z,9.50
2022-12-25T17:20:07.537Z,9.50
2022-12-25T17:22:34.536Z,9.80
2022-12-25T17:25:01.960Z,9.70
2022-12-25T17:27:29.230Z,9.80
2022-12-25T17:29:56.558Z,9.70
2022-12-25T17:32:23.533Z,9.60
2022-12-25T17:34:50.854Z,9.70
2022-12-25T17:37:18.307Z,9.50
2022-12-25T17:39:45.412Z,9.50
2022-12-25T17:42:12.396Z,9.30
2022-12-25T17:44:39.305Z,9.30
2022-12-25T17:47:06.297Z,9.30
2022-12-25T17:49:33.265Z,9.20
2022-12-25T17:52:00.204Z,9.30
2022-12-25T17:54:27.082Z,9.20
2022-12-25T17:56:53.941Z,9.20
2022-12-25T17:59:28.277Z,9.00
2022-12-25T18:01:55.214Z,8.90
2022-12-25T18:04:22.221Z,9.00
2022-12-25T18:06:49.130Z,8.90
2022-12-25T18:09:15.987Z,8.60
2022-12-25T18:11:43.428Z,8.80
2022-12-25T18:14:13.148Z,8.60
2022-12-25T18:16:42.037Z,8.50
2022-12-25T18:19:09.552Z,8.40
2022-12-25T18:21:36.602Z,8.30
2022-12-25T18:24:04.037Z,8.30
2022-12-25T18:26:30.900Z,8.40
2022-12-25T18:28:57.876Z,8.20
2022-12-25T18:31:26.863Z,8.30
2022-12-25T18:33:54.118Z,8.40
2022-12-25T18:36:22.216Z,8.40
2022-12-25T18:38:49.718Z,8.40
2022-12-25T18:41:16.844Z,8.30
2022-12-25T18:43:53.336Z,8.20
2022-12-25T18:46:26.361Z,8.30
2022-12-25T18:48:54.690Z,8.20
2022-12-25T18:51:21.675Z,8.20
2022-12-25T18:53:48.585Z,8.30
2022-12-25T18:56:17.479Z,8.10
2022-12-25T18:58:44.926Z,8.20
2022-12-25T19:01:19.398Z,8.10
2022-12-25T19:03:49.130Z,8.00
2022-12-25T19:06:17.722Z,8.20
2022-12-25T19:08:44.737Z,8.00
2022-12-25T19:11:11.580Z,8.00
2022-12-25T19:13:38.512Z,7.80
2022-12-25T19:16:05.534Z,7.70
2022-12-25T19:18:32.450Z,7.60
2022-12-25T19:21:03.565Z,7.60
2022-12-25T19:23:30.485Z,7.50
2022-12-25T19:25:57.320Z,7.60
2022-12-25T19:28:25.195Z,7.60
2022-12-25T19:30:53.891Z,7.50
2022-12-25T19:33:21.470Z,7.50
2022-12-25T19:35:49.088Z,7.40
2022-12-25T19:38:16.219Z,7.40
2022-12-25T19:41:00.246Z,7.30
2022-12-25T19:43:29.104Z,7.20
2022-12-25T19:45:56.433Z,7.10
2022-12-25T19:48:23.944Z,7.10
2022-12-25T19:50:51.133Z,7.10
2022-12-25T19:53:18.495Z,7.10
2022-12-25T19:55:45.523Z,7.10
2022-12-25T19:58:12.419Z,7.10
2022-12-25T20:00:40.390Z,7.30
2022-12-25T20:03:08.150Z,7.30
2022-12-25T20:05:35.126Z,7.20
2022-12-25T20:08:02.493Z,7.10
2022-12-25T20:10:29.407Z,7.00
2022-12-25T20:12:56.302Z,6.90
2022-12-25T20:15:23.177Z,6.90
2022-12-25T20:17:50.058Z,6.80
2022-12-25T20:20:16.927Z,6.80
2022-12-25T20:22:43.817Z,6.70
2022-12-25T20:25:11.451Z,6.70
2022-12-25T20:27:41.133Z,6.60
2022-12-25T20:30:08.201Z,6.60
2022-12-25T20:32:35.068Z,6.60
2022-12-25T20:35:02.004Z,6.50
2022-12-25T20:37:28.796Z,6.70
2022-12-25T20:39:55.760Z,6.70
2022-12-25T20:42:22.674Z,6.90
2022-12-25T20:44:49.518Z,7.00
2022-12-25T20:47:16.424Z,6.80
2022-12-25T20:49:43.344Z,6.80
2022-12-25T20:52:10.316Z,7.00
2022-12-25T20:54:37.234Z,7.10
2022-12-25T20:57:04.071Z,7.10
2022-12-25T20:59:37.216Z,7.20
2022-12-25T21:02:04.967Z,7.10
2022-12-25T21:04:31.951Z,6.90
2022-12-25T21:06:58.810Z,7.10
2022-12-25T21:09:25.657Z,7.00
2022-12-25T21:11:52.609Z,6.80
2022-12-25T21:14:19.432Z,6.90
2022-12-25T21:16:46.524Z,6.80
2022-12-25T21:19:14.048Z,6.80
2022-12-25T21:21:43.067Z,6.60
2022-12-25T21:24:10.617Z,6.60
2022-12-25T21:26:40.771Z,6.50
2022-12-25T21:29:10.105Z,6.40
2022-12-25T21:31:55.601Z,6.50
2022-12-25T21:34:22.719Z,6.70
2022-12-25T21:36:49.610Z,6.50
2022-12-25T21:39:16.635Z,6.40
2022-12-25T21:41:43.419Z,6.40
2022-12-25T21:44:10.526Z,6.40
2022-12-25T21:46:37.522Z,6.40
2022-12-25T21:49:04.399Z,6.40
2022-12-25T21:51:50.950Z,6.40
2022-12-25T21:54:18.606Z,6.30
2022-12-25T21:56:47.173Z,6.40
2022-12-25T21:59:18.253Z,6.50
2022-12-25T22:01:45.397Z,6.60
2022-12-25T22:04:13.319Z,6.70
2022-12-25T22:06:58.870Z,6.70
2022-12-25T22:09:25.975Z,6.80
2022-12-25T22:12:11.709Z,7.00
2022-12-25T22:14:55.221Z,6.90
2022-12-25T22:17:43.182Z,7.00
2022-12-25T22:20:11.778Z,7.10
2022-12-25T22:22:38.629Z,7.10
2022-12-25T22:25:06.284Z,7.20
2022-12-25T22:27:34.185Z,7.20
2022-12-25T22:30:01.439Z,7.30
2022-12-25T22:32:28.545Z,7.30
2022-12-25T22:34:55.597Z,7.30
2022-12-25T22:37:22.715Z,7.30
2022-12-25T22:39:49.729Z,7.30
2022-12-25T22:42:16.786Z,7.30
2022-12-25T22:44:44.029Z,7.30
2022-12-25T22:47:11.053Z,7.40
2022-12-25T22:49:38.125Z,7.30
2022-12-25T22:52:05.216Z,7.50
2022-12-25T22:54:32.198Z,7.60
2022-12-25T22:56:59.408Z,7.60
2022-12-25T22:59:26.294Z,7.50
2022-12-25T23:01:53.333Z,7.50
2022-12-25T23:04:20.404Z,7.60
2022-12-25T23:06:47.315Z,7.50
2022-12-25T23:09:19.010Z,7.60
2022-12-25T23:11:51.095Z,7.60
2022-12-25T23:14:36.573Z,7.70
2022-12-25T23:17:03.441Z,7.70
2022-12-25T23:19:48.860Z,7.70
2022-12-25T23:22:34.364Z,7.70
2022-12-25T23:25:19.935Z,7.70
2022-12-25T23:27:47.005Z,7.70
2022-12-25T23:30:14.726Z,7.80
2022-12-25T23:32:42.522Z,7.80
2022-12-25T23:35:09.982Z,7.80
2022-12-25T23:37:36.808Z,7.80
2022-12-25T23:40:03.780Z,8.00
2022-12-25T23:42:30.622Z,8.00
2022-12-25T23:44:57.504Z,8.00
2022-12-25T23:47:24.328Z,8.10
2022-12-25T23:49:51.199Z,8.10
2022-12-25T23:52:18.157Z,8.10
2022-12-25T23:54:45.019Z,8.10
2022-12-25T23:57:12.386Z,8.10
2022-12-25T23:59:39.543Z,8.00
